createdAt,value
2022-12-23T00:01:44.131Z,100411.22
2022-12-23T00:04:10.584Z,100409.03
2022-12-23T00:06:37.001Z,100412.13
2022-12-23T00:09:03.475Z,100407.94
2022-12-23T00:11:29.852Z,100409.47
2022-12-23T00:14:20.610Z,100413.69
2022-12-23T00:16:47.918Z,100422.75
2022-12-23T00:19:14.265Z,100432.25
2022-12-23T00:21:40.627Z,100427.72
2022-12-23T00:24:07.019Z,100437.56
2022-12-23T00:26:33.841Z,100438.00
2022-12-23T00:29:00.218Z,100445.97
2022-12-23T00:31:26.607Z,100446.63
2022-12-23T00:33:54.177Z,100439.44
2022-12-23T00:36:24.382Z,100448.19
2022-12-23T00:39:09.684Z,100449.28
2022-12-23T00:41:54.429Z,100461.28
2022-12-23T00:44:21.028Z,100455.22
2022-12-23T00:46:47.548Z,100457.56
2022-12-23T00:49:36.059Z,100454.44
2022-12-23T00:52:03.203Z,100454.13
2022-12-23T00:54:29.762Z,100449.91
2022-12-23T00:56:56.136Z,100453.66
2022-12-23T00:59:22.499Z,100455.88
2022-12-23T01:02:07.735Z,100463.06
2022-12-23T01:04:53.129Z,100467.88
2022-12-23T01:07:20.008Z,100468.66
2022-12-23T01:09:46.444Z,100471.63
2022-12-23T01:12:12.973Z,100469.31
2022-12-23T01:14:39.592Z,100473.50
2022-12-23T01:17:07.023Z,100473.19
2022-12-23T01:19:33.738Z,100475.38
2022-12-23T01:22:01.028Z,100474.63
2022-12-23T01:24:29.449Z,100484.78
2022-12-23T01:26:56.106Z,100485.84
2022-12-23T01:29:22.687Z,100488.50
2022-12-23T01:31:49.046Z,100486.94
2022-12-23T01:34:15.430Z,100493.03
2022-12-23T01:36:42.040Z,100495.69
2022-12-23T01:39:08.379Z,100490.38
2022-12-23T01:42:13.432Z,100496.78
2022-12-23T01:44:49.912Z,100503.34
2022-12-23T01:47:48.972Z,100505.53
2022-12-23T01:50:36.381Z,100505.53
2022-12-23T01:53:34.163Z,100504.28
2022-12-23T01:56:06.345Z,100510.38
2022-12-23T01:58:38.176Z,100518.78
2022-12-23T02:01:24.206Z,100519.88
2022-12-23T02:03:53.381Z,100527.41
2022-12-23T02:06:43.560Z,100539.09
2022-12-23T02:09:19.783Z,100537.22
2022-12-23T02:12:24.151Z,100543.31
2022-12-23T02:15:27.936Z,100546.25
2022-12-23T02:18:16.296Z,100550.78
2022-12-23T02:21:16.437Z,100550.78
2022-12-23T02:23:51.575Z,100557.66
2022-12-23T02:26:58.334Z,100559.53
2022-12-23T02:29:43.432Z,100562.81
2022-12-23T02:32:19.230Z,100575.31
2022-12-23T02:35:01.249Z,100573.75
2022-12-23T02:37:43.281Z,100577.47
2022-12-23T02:40:31.361Z,100579.34
2022-12-23T02:43:08.821Z,100573.28
2022-12-23T02:46:01.290Z,100584.53
2022-12-23T02:48:35.866Z,100589.84
2022-12-23T02:51:03.890Z,100595.16
2022-12-23T02:53:47.820Z,100594.97
2022-12-23T02:56:15.135Z,100602.16
2022-12-23T02:58:50.865Z,100600.13
2022-12-23T03:01:19.365Z,100603.41
2022-12-23T03:03:48.265Z,100613.53
2022-12-23T03:06:24.264Z,100607.78
2022-12-23T03:08:54.471Z,100612.63
2022-12-23T03:11:21.022Z,100612.63
2022-12-23T03:13:50.192Z,100614.78
2022-12-23T03:16:27.737Z,100610.91
2022-12-23T03:19:09.925Z,100614.66
2022-12-23T03:21:48.026Z,100615.13
2022-12-23T03:24:33.700Z,100608.88
2022-12-23T03:27:30.490Z,100601.09
2022-12-23T03:30:08.096Z,100599.34
2022-12-23T03:32:46.011Z,100598.59
2022-12-23T03:35:17.577Z,100601.69
2022-12-23T03:37:48.052Z,100604.81
2022-12-23T03:40:26.943Z,100608.72
2022-12-23T03:43:00.464Z,100614.34
2022-12-23T03:45:40.638Z,100608.56
2022-12-23T03:48:23.840Z,100608.56
2022-12-23T03:50:55.819Z,100612.63
2022-12-23T03:53:32.510Z,100608.41
2022-12-23T03:56:14.829Z,100615.59
2022-12-23T03:58:58.265Z,100597.50
2022-12-23T04:01:52.965Z,100618.06
2022-12-23T04:05:05.731Z,100630.38
2022-12-23T04:07:39.343Z,100631.75
2022-12-23T04:10:07.667Z,100632.84
2022-12-23T04:12:34.218Z,100645.31
2022-12-23T04:15:00.774Z,100640.50
2022-12-23T04:17:28.749Z,100649.22
2022-12-23T04:19:55.563Z,100653.75
2022-12-23T04:22:21.950Z,100662.00
2022-12-23T04:24:48.283Z,100650.63
2022-12-23T04:27:16.332Z,100658.09
2022-12-23T04:29:43.855Z,100677.75
2022-12-23T04:32:10.864Z,100665.56
2022-12-23T04:34:37.186Z,100672.44
2022-12-23T04:37:04.801Z,100666.06
2022-12-23T04:39:31.269Z,100662.09
2022-12-23T04:41:57.571Z,100652.81
2022-12-23T04:44:23.919Z,100655.47
2022-12-23T04:46:50.308Z,100655.91
2022-12-23T04:49:16.633Z,100664.19
2022-12-23T04:51:42.961Z,100654.69
2022-12-23T04:54:10.058Z,100640.34
2022-12-23T04:56:36.370Z,100649.06
2022-12-23T04:59:04.186Z,100642.22
2022-12-23T05:01:41.043Z,100646.72
2022-12-23T05:04:08.768Z,100651.25
2022-12-23T05:06:42.428Z,100645.94
2022-12-23T05:09:14.183Z,100642.53
2022-12-23T05:11:42.560Z,100643.75
2022-12-23T05:14:21.825Z,100646.41
2022-12-23T05:16:48.195Z,100661.22
2022-12-23T05:19:14.625Z,100654.03
2022-12-23T05:21:43.315Z,100658.56
2022-12-23T05:24:16.342Z,100662.78
2022-12-23T05:26:52.868Z,100668.25
2022-12-23T05:29:29.238Z,100673.22
2022-12-23T05:32:02.682Z,100675.88
2022-12-23T05:34:29.026Z,100677.75
2022-12-23T05:37:02.520Z,100683.38
2022-12-23T05:39:42.683Z,100691.31
2022-12-23T05:42:11.885Z,100693.97
2022-12-23T05:44:44.921Z,100698.94
2022-12-23T05:47:14.604Z,100699.72
2022-12-23T05:49:56.448Z,100697.09
2022-12-23T05:52:32.091Z,100702.38
2022-12-23T05:55:31.884Z,100700.38
2022-12-23T05:58:06.842Z,100695.06
2022-12-23T06:00:40.288Z,100695.06
2022-12-23T06:03:38.447Z,100694.56
2022-12-23T06:06:26.508Z,100689.28
2022-12-23T06:09:11.599Z,100690.84
2022-12-23T06:11:51.137Z,100676.78
2022-12-23T06:17:12.217Z,100684.75
2022-12-23T06:19:51.050Z,100680.25
2022-12-23T06:26:01.017Z,100666.19
2022-12-23T06:29:04.048Z,100668.06
2022-12-23T06:32:10.188Z,100662.00
2022-12-23T06:34:51.988Z,100663.88
2022-12-23T06:37:39.116Z,100665.75
2022-12-23T06:40:43.155Z,100672.13
2022-12-23T06:44:14.367Z,100676.16
2022-12-23T06:46:29.586Z,100677.53
2022-12-23T06:48:56.044Z,100682.66
2022-12-23T06:51:22.583Z,100692.03
2022-12-23T06:53:48.946Z,100694.97
2022-12-23T06:56:15.261Z,100697.63
2022-12-23T06:58:41.668Z,100705.56
2022-12-23T07:01:09.992Z,100702.16
2022-12-23T07:03:36.939Z,100706.63
2022-12-23T07:06:03.632Z,100702.44
2022-12-23T07:08:30.098Z,100712.56
2022-12-23T07:11:03.476Z,100711.78
2022-12-23T07:13:31.164Z,100716.31
2022-12-23T07:15:57.713Z,100715.81
2022-12-23T07:18:25.042Z,100727.50
2022-12-23T07:20:52.246Z,100734.97
2022-12-23T07:23:18.772Z,100733.44
2022-12-23T07:25:45.348Z,100732.94
2022-12-23T07:28:11.737Z,100734.03
2022-12-23T07:30:38.693Z,100734.03
2022-12-23T07:33:05.064Z,100734.03
2022-12-23T07:35:31.688Z,100738.22
2022-12-23T07:37:59.363Z,100734.47
2022-12-23T07:40:26.825Z,100731.56
2022-12-23T07:42:59.719Z,100725.47
2022-12-23T07:45:28.394Z,100703.97
2022-12-23T07:47:56.794Z,100704.75
2022-12-23T07:50:24.206Z,100708.97
2022-12-23T07:52:51.993Z,100713.16
2022-12-23T07:55:18.877Z,100706.31
2022-12-23T07:57:50.319Z,100697.13
2022-12-23T08:00:17.223Z,100700.53
2022-12-23T08:02:43.863Z,100715.34
2022-12-23T08:05:11.168Z,100710.06
2022-12-23T08:07:38.283Z,100705.84
2022-12-23T08:10:05.389Z,100706.94
2022-12-23T08:12:32.366Z,100699.75
2022-12-23T08:14:59.100Z,100699.47
2022-12-23T08:17:29.942Z,100698.06
2022-12-23T08:19:57.158Z,100696.97
2022-12-23T08:22:24.023Z,100696.66
2022-12-23T08:24:50.403Z,100688.72
2022-12-23T08:27:16.853Z,100692.47
2022-12-23T08:29:43.165Z,100692.47
2022-12-23T08:32:09.512Z,100697.44
2022-12-23T08:34:36.423Z,100683.88
2022-12-23T08:37:02.854Z,100678.59
2022-12-23T08:39:29.206Z,100676.44
2022-12-23T08:41:55.641Z,100678.00
2022-12-23T08:44:22.281Z,100670.03
2022-12-23T08:46:48.717Z,100677.69
2022-12-23T08:49:15.197Z,100681.88
2022-12-23T08:51:42.399Z,100665.97
2022-12-23T08:54:10.043Z,100661.47
2022-12-23T08:56:40.351Z,100664.13
2022-12-23T08:59:07.543Z,100661.97
2022-12-23T09:01:34.659Z,100655.56
2022-12-23T09:04:05.565Z,100651.03
2022-12-23T09:06:35.140Z,100644.97
2022-12-23T09:09:01.613Z,100645.75
2022-12-23T09:11:29.848Z,100640.13
2022-12-23T09:13:58.819Z,100643.56
2022-12-23T09:16:25.553Z,100629.28
2022-12-23T09:18:52.074Z,100630.06
2022-12-23T09:21:20.772Z,100643.75
2022-12-23T09:23:47.902Z,100630.50
2022-12-23T09:26:25.566Z,100628.63
2022-12-23T09:28:52.904Z,100627.53
2022-12-23T09:31:20.599Z,100621.47
2022-12-23T09:33:49.056Z,100625.69
2022-12-23T09:36:15.549Z,100631.75
2022-12-23T09:38:41.917Z,100628.81
2022-12-23T09:41:32.636Z,100631.91
2022-12-23T09:44:36.312Z,100623.97
2022-12-23T09:47:12.056Z,100630.81
2022-12-23T09:49:51.386Z,100627.09
2022-12-23T09:52:44.786Z,100620.72
2022-12-23T09:55:12.340Z,100610.91
2022-12-23T09:57:56.620Z,100599.97
2022-12-23T10:00:23.556Z,100601.53
2022-12-23T10:03:14.565Z,100584.53
2022-12-23T10:05:56.070Z,100577.34
2022-12-23T10:08:34.268Z,100565.97
2022-12-23T10:11:17.834Z,100556.66
2022-12-23T10:13:50.868Z,100549.47
2022-12-23T10:16:25.465Z,100554.44
2022-12-23T10:19:08.911Z,100548.81
2022-12-23T10:21:47.120Z,100543.25
2022-12-23T10:24:26.209Z,100546.34
2022-12-23T10:26:55.647Z,100542.31
2022-12-23T10:29:30.563Z,100537.78
2022-12-23T10:32:16.974Z,100539.00
2022-12-23T10:35:13.251Z,100534.03
2022-12-23T10:38:02.926Z,100546.97
2022-12-23T10:40:45.330Z,100531.84
2022-12-23T10:43:14.699Z,100533.38
2022-12-23T10:45:48.365Z,100531.50
2022-12-23T10:48:29.163Z,100525.16
2022-12-23T10:51:09.817Z,100520.91
2022-12-23T10:53:41.663Z,100516.09
2022-12-23T10:56:08.893Z,100518.44
2022-12-23T10:58:41.989Z,100513.91
2022-12-23T11:01:16.064Z,100509.06
2022-12-23T11:03:57.594Z,100509.84
2022-12-23T11:06:25.313Z,100506.09
2022-12-23T11:08:52.306Z,100505.00
2022-12-23T11:11:18.850Z,100499.38
2022-12-23T11:13:46.655Z,100488.78
2022-12-23T11:16:27.068Z,100488.78
2022-12-23T11:19:14.471Z,100483.19
2022-12-23T11:21:56.917Z,100495.63
2022-12-23T11:24:24.532Z,100494.56
2022-12-23T11:27:01.574Z,100497.22
2022-12-23T11:29:33.318Z,100481.31
2022-12-23T11:32:01.471Z,100480.97
2022-12-23T11:34:33.252Z,100479.09
2022-12-23T11:37:06.930Z,100465.84
2022-12-23T11:39:36.716Z,100448.84
2022-12-23T11:42:15.722Z,100450.38
2022-12-23T11:44:48.847Z,100433.41
2022-12-23T11:47:37.153Z,100420.16
2022-12-23T11:50:31.614Z,100408.44
2022-12-23T11:53:03.564Z,100405.78
2022-12-23T11:55:32.858Z,100406.88
2022-12-23T11:58:01.738Z,100392.97
2022-12-23T12:00:56.678Z,100384.56
2022-12-23T12:03:31.698Z,100368.66
2022-12-23T12:06:01.127Z,100370.53
2022-12-23T12:08:34.119Z,100368.66
2022-12-23T12:11:05.812Z,100367.88
2022-12-23T12:13:40.931Z,100365.53
2022-12-23T12:16:19.909Z,100361.81
2022-12-23T12:18:53.746Z,100359.16
2022-12-23T12:21:28.137Z,100355.41
2022-12-23T12:24:17.961Z,100360.72
2022-12-23T12:26:51.252Z,100361.47
2022-12-23T12:29:26.815Z,100357.28
2022-12-23T12:31:56.995Z,100339.78
2022-12-23T12:35:00.949Z,100331.84
2022-12-23T12:37:48.090Z,100316.25
2022-12-23T12:40:38.565Z,100298.78
2022-12-23T12:43:18.505Z,100303.78
2022-12-23T12:45:53.811Z,100298.78
2022-12-23T12:48:34.633Z,100282.88
2022-12-23T12:51:21.200Z,100276.81
2022-12-23T12:54:06.332Z,100276.03
2022-12-23T12:56:40.370Z,100269.97
2022-12-23T12:59:18.702Z,100266.97
2022-12-23T13:01:51.203Z,100252.94
2022-12-23T13:04:26.695Z,100251.06
2022-12-23T13:07:15.352Z,100249.53
2022-12-23T13:09:53.581Z,100242.00
2022-12-23T13:12:37.081Z,100242.00
2022-12-23T13:15:29.477Z,100244.34
2022-12-23T13:18:22.244Z,100240.91
2022-12-23T13:20:56.129Z,100228.75
2022-12-23T13:23:43.557Z,100238.25
2022-12-23T13:26:35.980Z,100231.41
2022-12-23T13:29:41.154Z,100227.22
2022-12-23T13:32:30.026Z,100223.44
2022-12-23T13:35:08.277Z,100212.84
2022-12-23T13:38:07.934Z,100216.28
2022-12-23T13:40:59.360Z,100213.31
2022-12-23T13:43:35.755Z,100222.81
2022-12-23T13:46:08.691Z,100227.03
2022-12-23T13:48:57.854Z,100225.47
2022-12-23T13:51:34.465Z,100211.13
2022-12-23T13:54:38.029Z,100199.41
2022-12-23T13:57:08.531Z,100191.44
2022-12-23T13:59:44.237Z,100190.34
2022-12-23T14:02:49.303Z,100180.41
2022-12-23T14:05:37.223Z,100169.03
2022-12-23T14:08:23.897Z,100160.28
2022-12-23T14:11:17.833Z,100145.16
2022-12-23T14:13:50.207Z,100144.38
2022-12-23T14:16:47.667Z,100140.63
2022-12-23T14:19:55.379Z,100142.63
2022-12-23T14:22:39.028Z,100140.44
2022-12-23T14:25:36.449Z,100146.63
2022-12-23T14:28:15.141Z,100137.25
2022-12-23T14:30:45.754Z,100125.88
2022-12-23T14:33:23.848Z,100124.31
2022-12-23T14:35:53.437Z,100117.44
2022-12-23T14:38:26.137Z,100123.84
2022-12-23T14:40:54.233Z,100124.97
2022-12-23T14:43:26.659Z,100131.38
2022-12-23T14:45:57.853Z,100135.13
2022-12-23T14:48:33.261Z,100139.31
2022-12-23T14:51:08.651Z,100137.78
2022-12-23T14:53:37.022Z,100143.09
2022-12-23T14:56:12.024Z,100155.22
2022-12-23T14:58:54.404Z,100144.63
2022-12-23T15:01:39.526Z,100142.31
2022-12-23T15:04:18.985Z,100136.19
2022-12-23T15:06:49.325Z,100137.00
2022-12-23T15:09:23.652Z,100136.19
2022-12-23T15:11:50.475Z,100134.03
2022-12-23T15:14:32.057Z,100121.09
2022-12-23T15:16:58.385Z,100118.75
2022-12-23T15:19:27.113Z,100111.56
2022-12-23T15:22:20.674Z,100111.13
2022-12-23T15:24:50.059Z,100110.69
2022-12-23T15:27:26.975Z,100126.13
2022-12-23T15:29:54.592Z,100126.91
2022-12-23T15:32:23.740Z,100124.25
2022-12-23T15:34:52.585Z,100120.03
2022-12-23T15:37:27.549Z,100110.53
2022-12-23T15:40:03.362Z,100098.06
2022-12-23T15:42:34.043Z,100105.56
2022-12-23T15:45:00.425Z,100122.25
2022-12-23T15:47:29.090Z,100111.66
2022-12-23T15:50:00.558Z,100094.19
2022-12-23T15:52:32.538Z,100099.81
2022-12-23T15:55:14.313Z,100108.53
2022-12-23T15:57:50.438Z,100119.94
2022-12-23T16:00:27.846Z,100120.72
2022-12-23T16:03:01.567Z,100121.94
2022-12-23T16:05:37.520Z,100137.84
2022-12-23T16:08:15.150Z,100138.94
2022-12-23T16:10:56.000Z,100145.34
2022-12-23T16:13:23.319Z,100141.91
2022-12-23T16:15:49.786Z,100150.66
2022-12-23T16:18:19.118Z,100151.75
2022-12-23T16:20:49.282Z,100134.59
2022-12-23T16:23:16.940Z,100133.06
2022-12-23T16:25:50.790Z,100124.00
2022-12-23T16:28:26.103Z,100128.19
2022-12-23T16:30:56.292Z,100123.66
2022-12-23T16:33:40.644Z,100121.78
2022-12-23T16:36:25.321Z,100116.81
2022-12-23T16:38:58.615Z,100121.34
2022-12-23T16:41:24.965Z,100131.19
2022-12-23T16:43:52.743Z,100130.41
2022-12-23T16:46:22.009Z,100134.16
2022-12-23T16:49:00.628Z,100136.81
2022-12-23T16:51:28.773Z,100140.56
2022-12-23T16:53:57.091Z,100151.16
2022-12-23T16:56:27.894Z,100142.41
2022-12-23T16:58:54.285Z,100140.56
2022-12-23T17:01:24.758Z,100140.88
2022-12-23T17:03:51.956Z,100149.59
2022-12-23T17:06:19.123Z,100153.34
2022-12-23T17:08:45.864Z,100150.69
2022-12-23T17:11:37.304Z,100153.69
2022-12-23T17:14:09.085Z,100155.22
2022-12-23T17:16:38.329Z,100162.84
2022-12-23T17:19:05.452Z,100151.94
2022-12-23T17:21:34.855Z,100146.31
2022-12-23T17:24:06.235Z,100150.06
2022-12-23T17:26:32.868Z,100156.47
2022-12-23T17:28:59.198Z,100171.28
2022-12-23T17:31:27.264Z,100165.66
2022-12-23T17:33:54.382Z,100161.13
2022-12-23T17:36:21.501Z,100161.56
2022-12-23T17:38:47.898Z,100159.38
2022-12-23T17:41:28.645Z,100156.84
2022-12-23T17:43:55.745Z,100160.72
2022-12-23T17:46:22.640Z,100159.63
2022-12-23T17:48:49.160Z,100157.88
2022-12-23T17:51:17.556Z,100147.38
2022-12-23T17:53:45.311Z,100149.75
2022-12-23T17:56:18.187Z,100149.53
2022-12-23T17:58:46.156Z,100145.88
2022-12-23T18:01:23.852Z,100152.78
2022-12-23T18:03:50.291Z,100156.63
2022-12-23T18:06:18.674Z,100155.22
2022-12-23T18:08:45.924Z,100162.50
2022-12-23T18:11:20.666Z,100167.06
2022-12-23T18:13:48.951Z,100169.38
2022-12-23T18:16:15.348Z,100168.41
2022-12-23T18:18:46.246Z,100173.84
2022-12-23T18:21:23.983Z,100172.41
2022-12-23T18:23:51.837Z,100167.09
2022-12-23T18:26:18.146Z,100177.94
2022-12-23T18:28:44.775Z,100180.28
2022-12-23T18:31:19.425Z,100186.16
2022-12-23T18:33:46.432Z,100182.84
2022-12-23T18:36:22.340Z,100187.94
2022-12-23T18:38:48.918Z,100189.50
2022-12-23T18:41:15.361Z,100196.81
2022-12-23T18:43:41.765Z,100203.69
2022-12-23T18:46:08.175Z,100199.13
2022-12-23T18:48:34.539Z,100206.78
2022-12-23T18:51:00.854Z,100219.72
2022-12-23T18:53:27.178Z,100219.41
2022-12-23T18:55:54.301Z,100225.91
2022-12-23T18:58:21.750Z,100225.16
2022-12-23T19:00:50.025Z,100219.84
2022-12-23T19:03:20.702Z,100221.72
2022-12-23T19:05:48.753Z,100215.19
2022-12-23T19:08:18.961Z,100221.63
2022-12-23T19:10:48.772Z,100232.69
2022-12-23T19:13:15.561Z,100231.13
2022-12-23T19:15:43.553Z,100226.94
2022-12-23T19:18:15.199Z,100233.44
2022-12-23T19:20:42.980Z,100224.06
2022-12-23T19:23:10.337Z,100227.50
2022-12-23T19:25:39.661Z,100232.34
2022-12-23T19:28:05.973Z,100230.16
2022-12-23T19:30:32.352Z,100235.13
2022-12-23T19:32:58.700Z,100247.97
2022-12-23T19:35:25.018Z,100250.91
2022-12-23T19:37:51.423Z,100247.16
2022-12-23T19:40:18.810Z,100259.66
2022-12-23T19:42:45.208Z,100262.31
2022-12-23T19:45:11.866Z,100264.19
2022-12-23T19:47:38.225Z,100272.94
2022-12-23T19:50:06.638Z,100265.75
2022-12-23T19:52:33.424Z,100265.44
2022-12-23T19:54:59.745Z,100277.59
2022-12-23T19:57:26.106Z,100284.47
2022-12-23T19:59:52.458Z,100288.66
2022-12-23T20:02:19.923Z,100293.97
2022-12-23T20:04:46.724Z,100299.63
2022-12-23T20:07:13.185Z,100298.50
2022-12-23T20:09:39.525Z,100308.03
2022-12-23T20:12:05.996Z,100308.03
2022-12-23T20:14:34.424Z,100308.81
2022-12-23T20:17:01.079Z,100316.75
2022-12-23T20:19:27.759Z,100317.88
2022-12-23T20:21:54.123Z,100315.69
2022-12-23T20:24:20.421Z,100318.34
2022-12-23T20:26:46.975Z,100325.19
2022-12-23T20:29:13.425Z,100323.97
2022-12-23T20:31:40.390Z,100321.00
2022-12-23T20:34:08.863Z,100328.97
2022-12-23T20:36:36.440Z,100335.34
2022-12-23T20:39:04.067Z,100342.25
2022-12-23T20:41:31.733Z,100344.22
2022-12-23T20:46:45.359Z,100342.25
2022-12-23T20:49:12.607Z,100347.56
2022-12-23T20:51:38.922Z,100363.47
2022-12-23T20:54:05.300Z,100360.84
2022-12-23T20:56:31.731Z,100368.47
2022-12-23T20:58:59.395Z,100371.91
2022-12-23T21:01:37.960Z,100380.19
2022-12-23T21:04:07.518Z,100379.41
2022-12-23T21:06:34.272Z,100391.59
2022-12-23T21:09:01.406Z,100398.44
2022-12-23T21:11:29.596Z,100410.16
2022-12-23T21:14:01.173Z,100394.69
2022-12-23T21:16:31.954Z,100400.78
2022-12-23T21:18:58.889Z,100400.66
2022-12-23T21:21:27.421Z,100399.06
2022-12-23T21:23:56.102Z,100413.47
2022-12-23T21:26:24.995Z,100411.59
2022-12-23T21:28:53.115Z,100412.69
2022-12-23T21:31:22.452Z,100418.00
2022-12-23T21:33:50.152Z,100420.31
2022-12-23T21:36:20.825Z,100426.75
2022-12-23T21:38:48.111Z,100442.66
2022-12-23T21:41:21.527Z,100436.25
2022-12-23T21:43:49.168Z,100440.00
2022-12-23T21:46:20.494Z,100447.22
2022-12-23T21:48:48.042Z,100448.31
2022-12-23T21:51:22.382Z,100456.28
2022-12-23T21:53:51.344Z,100458.50
2022-12-23T21:56:19.917Z,100456.59
2022-12-23T21:58:47.043Z,100452.06
2022-12-23T22:01:18.904Z,100458.78
2022-12-23T22:03:46.430Z,100466.75
2022-12-23T22:06:18.381Z,100466.31
2022-12-23T22:08:44.707Z,100468.50
2022-12-23T22:11:17.063Z,100474.91
2022-12-23T22:13:44.680Z,100491.47
2022-12-23T22:16:17.363Z,100493.22
2022-12-23T22:18:44.602Z,100499.19
2022-12-23T22:21:13.808Z,100506.66
2022-12-23T22:23:40.959Z,100511.06
2022-12-23T22:26:08.502Z,100519.34
2022-12-23T22:28:36.556Z,100515.44
2022-12-23T22:31:08.483Z,100526.06
2022-12-23T22:33:35.166Z,100519.22
2022-12-23T22:36:01.558Z,100531.69
2022-12-23T22:38:27.902Z,100542.63
2022-12-23T22:40:54.327Z,100542.63
2022-12-23T22:43:20.649Z,100538.84
2022-12-23T22:45:47.277Z,100539.97
2022-12-23T22:48:13.847Z,100547.91
2022-12-23T22:50:40.213Z,100553.56
2022-12-23T22:53:06.569Z,100549.66
2022-12-23T22:55:32.970Z,100552.31
2022-12-23T22:57:59.380Z,100552.63
2022-12-23T23:00:25.676Z,100559.03
2022-12-23T23:02:52.223Z,100569.19
2022-12-23T23:05:18.573Z,100567.31
2022-12-23T23:07:44.970Z,100568.88
2022-12-23T23:10:11.395Z,100577.59
2022-12-23T23:12:37.825Z,100568.88
2022-12-23T23:15:04.393Z,100569.19
2022-12-23T23:17:30.737Z,100576.81
2022-12-23T23:19:57.103Z,100576.38
2022-12-23T23:22:24.411Z,100586.22
2022-12-23T23:24:51.855Z,100581.34
2022-12-23T23:27:18.670Z,100584.94
2022-12-23T23:29:44.975Z,100584.00
2022-12-23T23:32:11.484Z,100592.28
2022-12-23T23:34:37.936Z,100594.94
2022-12-23T23:37:05.036Z,100596.03
2022-12-23T23:39:31.423Z,100598.53
2022-12-23T23:41:57.767Z,100604.19
2022-12-23T23:44:24.085Z,100611.03
2022-12-23T23:46:50.430Z,100618.22
2022-12-23T23:49:16.787Z,100615.25
2022-12-23T23:51:43.173Z,100633.16
2022-12-23T23:54:09.496Z,100627.88
2022-12-23T23:56:38.539Z,100628.50
2022-12-23T23:59:05.704Z,100631.94
